Iola, Illinois
Current Conditions -  °F | °C
As of 5:55 PM on Wednesday 26 Nov 2014 (Local Time) from KFOA Reporting Station
Moderate Snow Moderate Snow  
Wind Chill: 32°   Ceiling: 300
Heat Index: 32°   Visibility: 0.5mi
Dew Point: 32°   Wind: 3mph
Humidity: 100%   Direction: 40°NE
Pressure: 30.06"   Gusts: NA
Location:  38.83°N, 88.63°W
Report Text: KFOA 262355Z AUTO 04003KT 1/2SM SN OVC003 00/00 A3006 RMK AO2 P0003 60003 T00000000 10020 20000
Loading
Personal Weather Stations






























Interactive Weather Map New forecast layout! Learn more

10-Day Weather Forecast

Advertisements
Track Severe Weather on mobile